Terminal Aerodrome Forecast
Issued by NWS Memphis, TN

Home | Current Version | Previous Version | Text Only | Print | Product List | Glossary On
Versions: 1 2 3 4 5 6 7 8 9 10 11 12 13 14 15 16
000
FTUS44 KMEG 120311 AAA
TAFMKL
TAF AMD
KMKL 120311Z 1203/1224 32012G16KT P6SM SCT035 BKN150
     FM120800 33010G16KT P6SM BKN030
     FM121500 34013G20KT P6SM FEW250
     FM122200 31008KT P6SM SKC=

USA.gov is the U.S. government's official web portal to all federal, state and local government web resources and services.